createdAt,value
2023-01-23T00:00:11.095Z,1010.17
2023-01-23T00:01:11.098Z,1010.16
2023-01-23T00:02:11.103Z,1010.20
2023-01-23T00:03:11.039Z,1010.11
2023-01-23T00:04:11.107Z,1010.14
2023-01-23T00:05:11.035Z,1010.20
2023-01-23T00:06:11.015Z,1010.17
2023-01-23T00:07:11.037Z,1010.20
2023-01-23T00:08:10.997Z,1010.19
2023-01-23T00:09:11.061Z,1010.11
2023-01-23T00:10:11.062Z,1010.16
2023-01-23T00:11:11.015Z,1010.13
2023-01-23T00:12:10.972Z,1010.17
2023-01-23T00:13:11.017Z,1010.19
2023-01-23T00:14:10.981Z,1010.18
2023-01-23T00:15:10.977Z,1010.12
2023-01-23T00:16:11.001Z,1010.17
2023-01-23T00:17:10.915Z,1010.22
2023-01-23T00:18:10.909Z,1010.20
2023-01-23T00:19:10.938Z,1010.16
2023-01-23T00:20:10.960Z,1010.11
2023-01-23T00:21:10.912Z,1010.17
2023-01-23T00:22:12.795Z,1010.15
2023-01-23T00:23:10.888Z,1010.14
2023-01-23T00:24:10.921Z,1010.14
2023-01-23T00:25:10.880Z,1010.14
2023-01-23T00:26:10.915Z,1010.18
2023-01-23T00:27:11.856Z,1010.07
2023-01-23T00:28:10.879Z,1010.11
2023-01-23T00:29:10.869Z,1010.06
2023-01-23T00:30:10.816Z,1010.01
2023-01-23T00:31:10.919Z,1010.06
2023-01-23T00:32:10.849Z,1010.05
2023-01-23T00:33:10.803Z,1010.08
2023-01-23T00:34:10.808Z,1010.00
2023-01-23T00:35:10.813Z,1010.07
2023-01-23T00:36:10.786Z,1010.03
2023-01-23T00:37:10.765Z,1010.09
2023-01-23T00:38:10.846Z,1010.12
2023-01-23T00:39:10.759Z,1010.07
2023-01-23T00:40:10.796Z,1010.16
2023-01-23T00:41:10.778Z,1010.14
2023-01-23T00:42:10.796Z,1010.15
2023-01-23T00:43:10.757Z,1010.08
2023-01-23T00:44:11.733Z,1010.24
2023-01-23T00:45:10.737Z,1010.15
2023-01-23T00:46:10.748Z,1010.19
2023-01-23T00:47:10.694Z,1010.08
2023-01-23T00:48:10.726Z,1010.21
2023-01-23T00:49:10.691Z,1010.14
2023-01-23T00:50:10.705Z,1010.17
2023-01-23T00:51:10.673Z,1010.23
2023-01-23T00:52:10.700Z,1010.17
2023-01-23T00:53:10.687Z,1010.18
2023-01-23T00:54:10.684Z,1010.12
2023-01-23T00:55:10.745Z,1010.23
2023-01-23T00:56:10.625Z,1010.26
2023-01-23T00:57:10.609Z,1010.21
2023-01-23T00:58:16.511Z,1010.26
2023-01-23T00:59:11.666Z,1010.30
2023-01-23T01:00:10.623Z,1010.23
2023-01-23T01:01:10.566Z,1010.28
2023-01-23T01:02:10.616Z,1010.29
2023-01-23T01:03:10.662Z,1010.29
2023-01-23T01:04:10.550Z,1010.26
2023-01-23T01:05:10.570Z,1010.28
2023-01-23T01:06:10.627Z,1010.31
2023-01-23T01:07:10.545Z,1010.29
2023-01-23T01:08:10.507Z,1010.29
2023-01-23T01:09:10.550Z,1010.35
2023-01-23T01:10:10.548Z,1010.39
2023-01-23T01:11:10.637Z,1010.36
2023-01-23T01:12:10.513Z,1010.33
2023-01-23T01:13:10.509Z,1010.34
2023-01-23T01:14:10.548Z,1010.39
2023-01-23T01:15:10.559Z,1010.34
2023-01-23T01:16:10.595Z,1010.42
2023-01-23T01:17:10.549Z,1010.39
2023-01-23T01:18:10.468Z,1010.38
2023-01-23T01:19:10.461Z,1010.39
2023-01-23T01:20:10.526Z,1010.37
2023-01-23T01:21:10.600Z,1010.35
2023-01-23T01:22:10.493Z,1010.35
2023-01-23T01:23:10.480Z,1010.31
2023-01-23T01:24:10.444Z,1010.36
2023-01-23T01:25:10.455Z,1010.35
2023-01-23T01:26:10.516Z,1010.36
2023-01-23T01:27:10.527Z,1010.35
2023-01-23T01:28:10.395Z,1010.41
2023-01-23T01:29:10.541Z,1010.35
2023-01-23T01:30:10.496Z,1010.38
2023-01-23T01:31:10.596Z,1010.36
2023-01-23T01:32:10.358Z,1010.38
2023-01-23T01:33:10.383Z,1010.47
2023-01-23T01:34:10.357Z,1010.41
2023-01-23T01:35:10.425Z,1010.41
2023-01-23T01:36:10.422Z,1010.45
2023-01-23T01:37:10.342Z,1010.44
2023-01-23T01:38:10.354Z,1010.39
2023-01-23T01:39:10.545Z,1010.39
2023-01-23T01:40:10.333Z,1010.35
2023-01-23T01:41:10.300Z,1010.37
2023-01-23T01:42:10.269Z,1010.33
2023-01-23T01:43:10.428Z,1010.27
2023-01-23T01:44:10.323Z,1010.33
2023-01-23T01:45:10.280Z,1010.32
2023-01-23T01:46:10.348Z,1010.33
2023-01-23T01:47:10.388Z,1010.31
2023-01-23T01:48:10.324Z,1010.27
2023-01-23T01:49:10.274Z,1010.28
2023-01-23T01:50:12.263Z,1010.23
2023-01-23T01:51:11.249Z,1010.31
2023-01-23T01:52:10.250Z,1010.30
2023-01-23T01:53:10.252Z,1010.30
2023-01-23T01:54:10.204Z,1010.31
2023-01-23T01:55:10.193Z,1010.27
2023-01-23T01:56:10.301Z,1010.27
2023-01-23T01:57:10.183Z,1010.34
2023-01-23T01:58:10.173Z,1010.32
2023-01-23T01:59:10.321Z,1010.35
2023-01-23T02:00:10.153Z,1010.42
2023-01-23T02:01:10.267Z,1010.36
2023-01-23T02:02:10.187Z,1010.44
2023-01-23T02:03:10.224Z,1010.51
2023-01-23T02:04:10.153Z,1010.52
2023-01-23T02:05:10.186Z,1010.54
2023-01-23T02:06:10.275Z,1010.54
2023-01-23T02:07:10.144Z,1010.58
2023-01-23T02:08:10.128Z,1010.55
2023-01-23T02:09:10.185Z,1010.49
2023-01-23T02:10:10.147Z,1010.53
2023-01-23T02:11:10.075Z,1010.51
2023-01-23T02:12:10.084Z,1010.57
2023-01-23T02:13:10.046Z,1010.57
2023-01-23T02:14:10.048Z,1010.66
2023-01-23T02:15:10.037Z,1010.66
2023-01-23T02:16:10.024Z,1010.66
2023-01-23T02:17:10.043Z,1010.68
2023-01-23T02:18:10.053Z,1010.74
2023-01-23T02:19:10.098Z,1010.71
2023-01-23T02:20:09.987Z,1010.70
2023-01-23T02:21:10.071Z,1010.76
2023-01-23T02:22:10.035Z,1010.78
2023-01-23T02:23:10.011Z,1010.82
2023-01-23T02:24:10.017Z,1010.73
2023-01-23T02:25:09.928Z,1010.72
2023-01-23T02:26:09.957Z,1010.75
2023-01-23T02:27:09.938Z,1010.81
2023-01-23T02:28:09.950Z,1010.76
2023-01-23T02:29:10.068Z,1010.80
2023-01-23T02:30:10.063Z,1010.79
2023-01-23T02:31:09.927Z,1010.83
2023-01-23T02:32:10.014Z,1010.83
2023-01-23T02:33:09.881Z,1010.87
2023-01-23T02:34:09.899Z,1010.87
2023-01-23T02:35:09.929Z,1010.84
2023-01-23T02:36:09.891Z,1010.77
2023-01-23T02:37:09.964Z,1010.83
2023-01-23T02:38:09.819Z,1010.82
2023-01-23T02:39:09.847Z,1010.80
2023-01-23T02:40:09.835Z,1010.81
2023-01-23T02:41:09.818Z,1010.83
2023-01-23T02:42:09.864Z,1010.85
2023-01-23T02:43:09.824Z,1010.73
2023-01-23T02:44:09.850Z,1010.78
2023-01-23T02:45:09.770Z,1010.76
2023-01-23T02:46:10.023Z,1010.82
2023-01-23T02:47:09.938Z,1010.76
2023-01-23T02:48:09.783Z,1010.78
2023-01-23T02:49:09.744Z,1010.79
2023-01-23T02:50:09.784Z,1010.72
2023-01-23T02:51:09.901Z,1010.73
2023-01-23T02:52:09.899Z,1010.72
2023-01-23T02:53:09.750Z,1010.78
2023-01-23T02:54:09.734Z,1010.77
2023-01-23T02:55:09.705Z,1010.78
2023-01-23T02:56:09.696Z,1010.85
2023-01-23T02:57:09.769Z,1010.85
2023-01-23T02:58:09.679Z,1010.86
2023-01-23T02:59:09.720Z,1010.86
2023-01-23T03:00:09.670Z,1010.81
2023-01-23T03:01:09.797Z,1010.90
2023-01-23T03:02:09.856Z,1010.94
2023-01-23T03:03:09.722Z,1010.94
2023-01-23T03:04:09.718Z,1010.91
2023-01-23T03:05:09.733Z,1010.89
2023-01-23T03:06:09.704Z,1010.85
2023-01-23T03:07:09.691Z,1010.82
2023-01-23T03:08:09.673Z,1010.91
2023-01-23T03:09:09.627Z,1010.81
2023-01-23T03:10:09.655Z,1010.88
2023-01-23T03:11:09.607Z,1010.87
2023-01-23T03:12:09.660Z,1010.92
2023-01-23T03:13:09.715Z,1010.93
2023-01-23T03:14:10.586Z,1010.97
2023-01-23T03:15:09.570Z,1010.99
2023-01-23T03:16:09.616Z,1011.05
2023-01-23T03:17:09.599Z,1011.10
2023-01-23T03:18:09.585Z,1011.14
2023-01-23T03:19:09.570Z,1011.07
2023-01-23T03:20:09.536Z,1011.15
2023-01-23T03:21:09.529Z,1011.17
2023-01-23T03:22:09.533Z,1011.22
2023-01-23T03:23:09.631Z,1011.17
2023-01-23T03:24:09.572Z,1011.01
2023-01-23T03:25:09.575Z,1011.00
2023-01-23T03:26:09.463Z,1011.09
2023-01-23T03:27:09.472Z,1010.99
2023-01-23T03:28:09.568Z,1011.01
2023-01-23T03:29:09.486Z,1011.06
2023-01-23T03:30:09.467Z,1010.97
2023-01-23T03:31:09.502Z,1011.00
2023-01-23T03:32:09.476Z,1011.03
2023-01-23T03:33:09.519Z,1011.06
2023-01-23T03:34:09.501Z,1011.05
2023-01-23T03:35:09.544Z,1011.20
2023-01-23T03:36:12.768Z,1011.13
2023-01-23T03:37:09.423Z,1011.18
2023-01-23T03:38:09.575Z,1011.14
2023-01-23T03:39:09.474Z,1011.14
2023-01-23T03:40:09.549Z,1011.21
2023-01-23T03:41:09.459Z,1011.23
2023-01-23T03:42:09.449Z,1011.19
2023-01-23T03:43:09.346Z,1011.21
2023-01-23T03:44:09.423Z,1011.22
2023-01-23T03:45:09.344Z,1011.34
2023-01-23T03:46:09.407Z,1011.29
2023-01-23T03:47:09.324Z,1011.34
2023-01-23T03:48:09.288Z,1011.28
2023-01-23T03:49:09.421Z,1011.32
2023-01-23T03:50:09.348Z,1011.34
2023-01-23T03:51:09.312Z,1011.33
2023-01-23T03:52:09.374Z,1011.33
2023-01-23T03:53:09.403Z,1011.22
2023-01-23T03:54:09.309Z,1011.34
2023-01-23T03:55:09.391Z,1011.35
2023-01-23T03:56:09.293Z,1011.26
2023-01-23T03:57:09.292Z,1011.38
2023-01-23T03:58:09.237Z,1011.32
2023-01-23T03:59:09.298Z,1011.28
2023-01-23T04:00:09.298Z,1011.35
2023-01-23T04:01:09.321Z,1011.36
2023-01-23T04:02:09.249Z,1011.36
2023-01-23T04:03:09.279Z,1011.32
2023-01-23T04:04:09.234Z,1011.37
2023-01-23T04:05:09.235Z,1011.36
2023-01-23T04:06:09.247Z,1011.39
2023-01-23T04:07:09.225Z,1011.37
2023-01-23T04:08:09.211Z,1011.38
2023-01-23T04:09:09.178Z,1011.38
2023-01-23T04:10:10.769Z,1011.40
2023-01-23T04:11:09.236Z,1011.48
2023-01-23T04:12:09.153Z,1011.47
2023-01-23T04:13:09.145Z,1011.48
2023-01-23T04:14:09.129Z,1011.51
2023-01-23T04:15:09.144Z,1011.44
2023-01-23T04:16:09.163Z,1011.47
2023-01-23T04:17:09.075Z,1011.38
2023-01-23T04:18:09.120Z,1011.43
2023-01-23T04:19:09.149Z,1011.43
2023-01-23T04:20:09.152Z,1011.37
2023-01-23T04:21:09.078Z,1011.39
2023-01-23T04:22:09.104Z,1011.39
2023-01-23T04:23:09.071Z,1011.35
2023-01-23T04:24:09.175Z,1011.37
2023-01-23T04:25:09.083Z,1011.32
2023-01-23T04:26:09.035Z,1011.34
2023-01-23T04:27:09.148Z,1011.31
2023-01-23T04:28:09.063Z,1011.32
2023-01-23T04:29:09.133Z,1011.32
2023-01-23T04:30:09.119Z,1011.41
2023-01-23T04:31:09.061Z,1011.35
2023-01-23T04:32:09.028Z,1011.42
2023-01-23T04:33:09.041Z,1011.43
2023-01-23T04:34:09.097Z,1011.35
2023-01-23T04:35:09.058Z,1011.35
2023-01-23T04:36:08.971Z,1011.39
2023-01-23T04:37:09.487Z,1011.42
2023-01-23T04:38:09.074Z,1011.46
2023-01-23T04:39:09.033Z,1011.41
2023-01-23T04:40:09.043Z,1011.44
2023-01-23T04:41:08.988Z,1011.44
2023-01-23T04:42:09.013Z,1011.48
2023-01-23T04:43:08.976Z,1011.47
2023-01-23T04:44:08.908Z,1011.45
2023-01-23T04:45:08.912Z,1011.42
2023-01-23T04:46:08.995Z,1011.42
2023-01-23T04:47:41.618Z,1011.35
2023-01-23T04:48:08.822Z,1011.26
2023-01-23T04:49:08.817Z,1011.31
2023-01-23T04:50:08.856Z,1011.23
2023-01-23T04:51:08.863Z,1011.29
2023-01-23T04:52:08.791Z,1011.33
2023-01-23T04:53:08.793Z,1011.29
2023-01-23T04:54:08.780Z,1011.28
2023-01-23T04:55:08.793Z,1011.21
2023-01-23T04:56:08.760Z,1011.28
2023-01-23T04:57:08.757Z,1011.33
2023-01-23T04:58:08.746Z,1011.18
2023-01-23T04:59:08.808Z,1011.24
2023-01-23T05:00:08.743Z,1011.25
2023-01-23T05:01:08.809Z,1011.27
2023-01-23T05:02:08.754Z,1011.33
2023-01-23T05:03:08.705Z,1011.28
2023-01-23T05:04:08.697Z,1011.25
2023-01-23T05:05:08.689Z,1011.22
2023-01-23T05:06:08.712Z,1011.32
2023-01-23T05:07:08.678Z,1011.28
2023-01-23T05:08:08.691Z,1011.27
2023-01-23T05:09:08.686Z,1011.28
2023-01-23T05:10:08.651Z,1011.27
2023-01-23T05:11:08.677Z,1011.34
2023-01-23T05:12:08.641Z,1011.16
2023-01-23T05:13:08.632Z,1011.36
2023-01-23T05:14:08.624Z,1011.34
2023-01-23T05:15:08.689Z,1011.29
2023-01-23T05:16:08.695Z,1011.28
2023-01-23T05:17:08.602Z,1011.37
2023-01-23T05:18:08.606Z,1011.39
2023-01-23T05:19:08.616Z,1011.35
2023-01-23T05:20:08.579Z,1011.37
2023-01-23T05:21:08.599Z,1011.34
2023-01-23T05:22:08.566Z,1011.38
2023-01-23T05:23:08.552Z,1011.34
2023-01-23T05:24:08.545Z,1011.37
2023-01-23T05:25:08.543Z,1011.38
2023-01-23T05:26:08.558Z,1011.43
2023-01-23T05:27:08.527Z,1011.38
2023-01-23T05:28:10.281Z,1011.47
2023-01-23T05:29:08.506Z,1011.37
2023-01-23T05:30:08.498Z,1011.39
2023-01-23T05:31:08.684Z,1011.33
2023-01-23T05:32:08.479Z,1011.38
2023-01-23T05:33:08.470Z,1011.36
2023-01-23T05:34:08.461Z,1011.36
2023-01-23T05:35:08.456Z,1011.30
2023-01-23T05:36:08.476Z,1011.37
2023-01-23T05:37:08.481Z,1011.28
2023-01-23T05:38:08.427Z,1011.41
2023-01-23T05:39:08.431Z,1011.39
2023-01-23T05:40:08.416Z,1011.36
2023-01-23T05:41:08.446Z,1011.36
2023-01-23T05:42:08.402Z,1011.42
2023-01-23T05:43:08.397Z,1011.51
2023-01-23T05:44:08.383Z,1011.53
2023-01-23T05:45:08.379Z,1011.55
2023-01-23T05:46:08.417Z,1011.57
2023-01-23T05:47:08.472Z,1011.52
2023-01-23T05:48:08.360Z,1011.54
2023-01-23T05:49:08.351Z,1011.56
2023-01-23T05:50:08.347Z,1011.57
2023-01-23T05:51:08.399Z,1011.53
2023-01-23T05:52:08.358Z,1011.63
2023-01-23T05:53:08.325Z,1011.58
2023-01-23T05:54:08.319Z,1011.59
2023-01-23T05:55:08.311Z,1011.58
2023-01-23T05:56:08.305Z,1011.60
2023-01-23T05:57:08.318Z,1011.59
2023-01-23T05:58:08.281Z,1011.70
2023-01-23T05:59:08.277Z,1011.74
2023-01-23T06:00:08.257Z,1011.76
2023-01-23T06:01:09.261Z,1011.74
2023-01-23T06:02:08.284Z,1011.79
2023-01-23T06:03:08.312Z,1011.80
2023-01-23T06:04:08.237Z,1011.80
2023-01-23T06:05:08.231Z,1011.78
2023-01-23T06:06:08.218Z,1011.77
2023-01-23T06:07:08.240Z,1011.77
2023-01-23T06:08:08.207Z,1011.84
2023-01-23T06:09:08.192Z,1011.81
2023-01-23T06:10:09.856Z,1011.79
2023-01-23T06:11:09.176Z,1011.87
2023-01-23T06:12:08.200Z,1011.90
2023-01-23T06:13:08.160Z,1012.05
2023-01-23T06:14:08.159Z,1012.05
2023-01-23T06:15:08.141Z,1011.97
2023-01-23T06:16:10.610Z,1012.01
2023-01-23T06:17:09.155Z,1011.95
2023-01-23T06:18:08.181Z,1012.05
2023-01-23T06:19:08.186Z,1011.95
2023-01-23T06:20:08.117Z,1012.06
2023-01-23T06:21:08.126Z,1012.09
2023-01-23T06:22:08.120Z,1012.11
2023-01-23T06:23:08.083Z,1012.15
2023-01-23T06:24:08.090Z,1012.15
2023-01-23T06:25:08.068Z,1012.17
2023-01-23T06:26:08.053Z,1012.12
2023-01-23T06:27:08.050Z,1012.29
2023-01-23T06:28:08.083Z,1012.25
2023-01-23T06:29:08.036Z,1012.26
2023-01-23T06:30:08.026Z,1012.29
2023-01-23T06:31:08.085Z,1012.17
2023-01-23T06:32:08.043Z,1012.23
2023-01-23T06:33:08.005Z,1012.23
2023-01-23T06:34:07.999Z,1012.16
2023-01-23T06:35:07.996Z,1012.22
2023-01-23T06:36:07.987Z,1012.25
2023-01-23T06:37:07.973Z,1012.28
2023-01-23T06:38:07.988Z,1012.32
2023-01-23T06:39:07.960Z,1012.26
2023-01-23T06:40:07.944Z,1012.26
2023-01-23T06:41:07.945Z,1012.29
2023-01-23T06:42:07.930Z,1012.25
2023-01-23T06:43:07.957Z,1012.30
2023-01-23T06:44:08.911Z,1012.33
2023-01-23T06:45:07.916Z,1012.30
2023-01-23T06:46:07.971Z,1012.27
2023-01-23T06:47:07.887Z,1012.33
2023-01-23T06:48:07.925Z,1012.31
2023-01-23T06:49:07.874Z,1012.37
2023-01-23T06:50:07.871Z,1012.38
2023-01-23T06:51:07.979Z,1012.33
2023-01-23T06:52:07.856Z,1012.38
2023-01-23T06:53:07.887Z,1012.44
2023-01-23T06:54:07.832Z,1012.42
2023-01-23T06:55:07.828Z,1012.42
2023-01-23T06:56:07.817Z,1012.48
2023-01-23T06:57:07.814Z,1012.48
2023-01-23T06:58:07.827Z,1012.31
2023-01-23T06:59:07.793Z,1012.54
2023-01-23T07:00:07.798Z,1012.48
2023-01-23T07:01:07.780Z,1012.35
2023-01-23T07:02:07.793Z,1012.40
2023-01-23T07:03:07.834Z,1012.39
2023-01-23T07:04:07.757Z,1012.41
2023-01-23T07:05:07.750Z,1012.38
2023-01-23T07:06:07.748Z,1012.35
2023-01-23T07:07:07.820Z,1012.37
2023-01-23T07:08:07.757Z,1012.35
2023-01-23T07:09:07.722Z,1012.39
2023-01-23T07:10:07.714Z,1012.41
2023-01-23T07:11:07.711Z,1012.38
2023-01-23T07:12:07.701Z,1012.36
2023-01-23T07:13:07.730Z,1012.48
2023-01-23T07:14:07.674Z,1012.39
2023-01-23T07:15:07.722Z,1012.40
2023-01-23T07:16:07.707Z,1012.45
2023-01-23T07:17:07.639Z,1012.46
2023-01-23T07:18:08.671Z,1012.32
2023-01-23T07:19:07.639Z,1012.40
2023-01-23T07:20:07.634Z,1012.52
2023-01-23T07:21:07.628Z,1012.47
2023-01-23T07:22:07.611Z,1012.44
2023-01-23T07:23:07.712Z,1012.50
2023-01-23T07:24:07.602Z,1012.49
2023-01-23T07:25:07.607Z,1012.50
2023-01-23T07:26:07.585Z,1012.51
2023-01-23T07:27:07.578Z,1012.50
2023-01-23T07:28:07.602Z,1012.53
2023-01-23T07:29:07.564Z,1012.56
2023-01-23T07:30:07.560Z,1012.50
2023-01-23T07:31:07.732Z,1012.53
2023-01-23T07:32:10.092Z,1012.51
2023-01-23T07:33:07.549Z,1012.57
2023-01-23T07:34:08.524Z,1012.53
2023-01-23T07:35:07.512Z,1012.58
2023-01-23T07:36:07.518Z,1012.58
2023-01-23T07:37:07.502Z,1012.61
2023-01-23T07:38:07.524Z,1012.64
2023-01-23T07:39:07.566Z,1012.68
2023-01-23T07:40:07.477Z,1012.65
2023-01-23T07:41:07.464Z,1012.69
2023-01-23T07:42:07.453Z,1012.74
2023-01-23T07:43:07.487Z,1012.73
2023-01-23T07:44:07.446Z,1012.75
2023-01-23T07:45:07.434Z,1012.75
2023-01-23T07:46:07.413Z,1012.81
2023-01-23T07:47:08.419Z,1012.85
2023-01-23T07:48:07.437Z,1012.89
2023-01-23T07:49:07.398Z,1012.88
2023-01-23T07:50:07.397Z,1012.97
2023-01-23T07:51:07.502Z,1012.90
2023-01-23T07:52:07.377Z,1012.95
2023-01-23T07:53:07.396Z,1012.95
2023-01-23T07:54:07.361Z,1012.86
2023-01-23T07:55:07.422Z,1012.89
2023-01-23T07:56:07.352Z,1012.95
2023-01-23T07:57:07.339Z,1012.97
2023-01-23T07:58:07.361Z,1012.98
2023-01-23T07:59:07.321Z,1013.03
2023-01-23T08:00:07.312Z,1013.04
2023-01-23T08:01:07.353Z,1012.91
2023-01-23T08:02:07.289Z,1012.89
2023-01-23T08:03:07.316Z,1012.92
2023-01-23T08:04:07.373Z,1012.93
2023-01-23T08:05:07.274Z,1012.96
2023-01-23T08:06:07.279Z,1012.93
2023-01-23T08:07:07.255Z,1013.00
2023-01-23T08:08:13.536Z,1012.95
2023-01-23T08:09:09.255Z,1012.97
2023-01-23T08:10:07.242Z,1012.98
2023-01-23T08:11:07.311Z,1013.07
2023-01-23T08:12:07.240Z,1013.08
2023-01-23T08:13:07.256Z,1013.00
2023-01-23T08:14:07.216Z,1013.04
2023-01-23T08:15:07.199Z,1013.07
2023-01-23T08:16:07.275Z,1012.92
2023-01-23T08:17:07.199Z,1012.99
2023-01-23T08:18:07.221Z,1013.00
2023-01-23T08:19:07.184Z,1013.11
2023-01-23T08:20:07.157Z,1013.08
2023-01-23T08:21:07.157Z,1013.07
2023-01-23T08:22:07.147Z,1013.09
2023-01-23T08:23:07.167Z,1013.08
2023-01-23T08:24:07.331Z,1013.17
2023-01-23T08:25:07.124Z,1013.13
2023-01-23T08:26:07.122Z,1013.13
2023-01-23T08:27:07.188Z,1013.18
2023-01-23T08:28:07.133Z,1013.12
2023-01-23T08:29:07.104Z,1013.18
2023-01-23T08:30:07.091Z,1013.17
2023-01-23T08:31:07.140Z,1013.20
2023-01-23T08:32:07.130Z,1013.14
2023-01-23T08:33:07.107Z,1013.18
2023-01-23T08:34:07.111Z,1013.24
2023-01-23T08:35:07.060Z,1013.18
2023-01-23T08:36:07.901Z,1013.19
2023-01-23T08:37:07.035Z,1013.18
2023-01-23T08:38:07.080Z,1013.27
2023-01-23T08:39:07.028Z,1013.23
2023-01-23T08:40:07.013Z,1013.20
2023-01-23T08:41:07.011Z,1013.29
2023-01-23T08:42:06.994Z,1013.27
2023-01-23T08:43:07.026Z,1013.27
2023-01-23T08:44:07.006Z,1013.27
2023-01-23T08:45:06.977Z,1013.34
2023-01-23T08:46:07.069Z,1013.37
2023-01-23T08:47:06.964Z,1013.34
2023-01-23T08:48:06.983Z,1013.40
2023-01-23T08:49:06.955Z,1013.37
2023-01-23T08:50:06.941Z,1013.29
2023-01-23T08:51:06.981Z,1013.41
2023-01-23T08:52:06.930Z,1013.41
2023-01-23T08:53:06.945Z,1013.46
2023-01-23T08:54:06.904Z,1013.39
2023-01-23T08:55:06.905Z,1013.43
2023-01-23T08:56:06.889Z,1013.38
2023-01-23T08:57:06.885Z,1013.46
2023-01-23T08:58:06.907Z,1013.45
2023-01-23T08:59:06.991Z,1013.49
2023-01-23T09:00:06.867Z,1013.46
2023-01-23T09:01:06.908Z,1013.48
2023-01-23T09:02:06.893Z,1013.49
2023-01-23T09:03:06.868Z,1013.56
2023-01-23T09:04:06.829Z,1013.53
2023-01-23T09:05:06.826Z,1013.42
2023-01-23T09:06:06.827Z,1013.52
2023-01-23T09:07:06.814Z,1013.55
2023-01-23T09:08:06.820Z,1013.53
2023-01-23T09:09:07.797Z,1013.60
2023-01-23T09:10:06.793Z,1013.63
2023-01-23T09:11:06.784Z,1013.58
2023-01-23T09:12:06.773Z,1013.64
2023-01-23T09:13:06.791Z,1013.50
2023-01-23T09:14:06.802Z,1013.61
2023-01-23T09:15:06.832Z,1013.52
2023-01-23T09:16:06.750Z,1013.62
2023-01-23T09:17:06.731Z,1013.53
2023-01-23T09:18:06.765Z,1013.58
2023-01-23T09:19:06.725Z,1013.57
2023-01-23T09:20:06.708Z,1013.54
2023-01-23T09:21:08.677Z,1013.49
2023-01-23T09:22:07.696Z,1013.52
2023-01-23T09:23:06.715Z,1013.53
2023-01-23T09:24:06.678Z,1013.55
2023-01-23T09:25:06.678Z,1013.63
2023-01-23T09:26:06.667Z,1013.68
2023-01-23T09:27:06.650Z,1013.62
2023-01-23T09:28:06.646Z,1013.68
2023-01-23T09:29:06.653Z,1013.65
2023-01-23T09:30:07.638Z,1013.62
2023-01-23T09:31:06.777Z,1013.67
2023-01-23T09:32:06.622Z,1013.69
2023-01-23T09:33:06.605Z,1013.62
2023-01-23T09:34:06.636Z,1013.71
2023-01-23T09:35:06.643Z,1013.68
2023-01-23T09:36:06.593Z,1013.71
2023-01-23T09:37:06.567Z,1013.65
2023-01-23T09:38:06.569Z,1013.63
2023-01-23T09:39:06.589Z,1013.67
2023-01-23T09:40:06.548Z,1013.65
2023-01-23T09:41:06.544Z,1013.62
2023-01-23T09:42:08.330Z,1013.61
2023-01-23T09:43:07.534Z,1013.63
2023-01-23T09:44:06.556Z,1013.63
2023-01-23T09:45:06.523Z,1013.65
2023-01-23T09:46:06.552Z,1013.68
2023-01-23T09:47:06.575Z,1013.69
2023-01-23T09:48:06.494Z,1013.69
2023-01-23T09:49:06.516Z,1013.70
2023-01-23T09:50:06.475Z,1013.57
2023-01-23T09:51:06.503Z,1013.70
2023-01-23T09:52:06.464Z,1013.60
2023-01-23T09:53:06.455Z,1013.61
2023-01-23T09:54:06.471Z,1013.69
2023-01-23T09:55:06.438Z,1013.60
2023-01-23T09:56:06.426Z,1013.72
2023-01-23T09:57:06.427Z,1013.66
2023-01-23T09:58:06.416Z,1013.69
2023-01-23T09:59:06.441Z,1013.77
2023-01-23T10:00:06.398Z,1013.68
2023-01-23T10:01:06.421Z,1013.59
2023-01-23T10:02:06.419Z,1013.71
2023-01-23T10:03:06.389Z,1013.62
2023-01-23T10:04:06.478Z,1013.59
2023-01-23T10:05:06.367Z,1013.58
2023-01-23T10:06:06.369Z,1013.60
2023-01-23T10:07:06.344Z,1013.67
2023-01-23T10:08:06.358Z,1013.59
2023-01-23T10:09:06.361Z,1013.55
2023-01-23T10:10:07.138Z,1013.58
2023-01-23T10:11:07.319Z,1013.54
2023-01-23T10:12:06.309Z,1013.58
2023-01-23T10:13:06.300Z,1013.52
2023-01-23T10:14:06.320Z,1013.59
2023-01-23T10:15:06.351Z,1013.42
2023-01-23T10:16:06.278Z,1013.47
2023-01-23T10:17:06.311Z,1013.56
2023-01-23T10:18:06.278Z,1013.58
2023-01-23T10:19:06.362Z,1013.62
2023-01-23T10:20:06.249Z,1013.57
2023-01-23T10:21:06.238Z,1013.61
2023-01-23T10:22:06.244Z,1013.60
2023-01-23T10:23:06.240Z,1013.64
2023-01-23T10:24:06.272Z,1013.70
2023-01-23T10:25:06.217Z,1013.67
2023-01-23T10:26:06.196Z,1013.68
2023-01-23T10:27:06.191Z,1013.61
2023-01-23T10:28:06.183Z,1013.55
2023-01-23T10:29:06.199Z,1013.63
2023-01-23T10:30:06.180Z,1013.56
2023-01-23T10:31:06.249Z,1013.58
2023-01-23T10:32:06.156Z,1013.56
2023-01-23T10:33:06.143Z,1013.59
2023-01-23T10:34:06.183Z,1013.64
2023-01-23T10:35:06.207Z,1013.66
2023-01-23T10:36:06.127Z,1013.56
2023-01-23T10:37:06.115Z,1013.47
2023-01-23T10:38:06.105Z,1013.56
2023-01-23T10:39:06.123Z,1013.55
2023-01-23T10:40:06.086Z,1013.52
2023-01-23T10:41:06.083Z,1013.46
2023-01-23T10:42:06.084Z,1013.52
2023-01-23T10:43:06.079Z,1013.48
2023-01-23T10:44:06.065Z,1013.50
2023-01-23T10:45:06.081Z,1013.51
2023-01-23T10:46:06.064Z,1013.52
2023-01-23T10:47:42.761Z,1013.53
2023-01-23T10:48:06.416Z,1013.57
2023-01-23T10:49:07.031Z,1013.57
2023-01-23T10:50:06.044Z,1013.55
2023-01-23T10:51:06.159Z,1013.47
2023-01-23T10:52:06.021Z,1013.53
2023-01-23T10:53:06.026Z,1013.44
2023-01-23T10:54:06.575Z,1013.40
2023-01-23T10:55:07.007Z,1013.58
2023-01-23T10:56:05.983Z,1013.40
2023-01-23T10:57:05.962Z,1013.47
2023-01-23T10:58:05.969Z,1013.42
2023-01-23T10:59:05.947Z,1013.41
2023-01-23T11:00:05.980Z,1013.46
2023-01-23T11:01:05.979Z,1013.47
2023-01-23T11:02:06.904Z,1013.68
2023-01-23T11:03:07.023Z,1013.46
2023-01-23T11:04:05.925Z,1013.49
2023-01-23T11:05:05.956Z,1013.49
2023-01-23T11:06:05.906Z,1013.52
2023-01-23T11:07:06.022Z,1013.47
2023-01-23T11:08:05.888Z,1013.48
2023-01-23T11:09:05.866Z,1013.47
2023-01-23T11:10:06.906Z,1013.45
2023-01-23T11:11:05.875Z,1013.47
2023-01-23T11:12:05.864Z,1013.44
2023-01-23T11:13:05.866Z,1013.31
2023-01-23T11:14:05.837Z,1013.39
2023-01-23T11:15:05.869Z,1013.40
2023-01-23T11:16:05.906Z,1013.45
2023-01-23T11:17:05.830Z,1013.42
2023-01-23T11:18:05.809Z,1013.46
2023-01-23T11:19:05.813Z,1013.48
2023-01-23T11:20:05.832Z,1013.51
2023-01-23T11:21:05.814Z,1013.47
2023-01-23T11:22:05.797Z,1013.39
2023-01-23T11:23:05.862Z,1013.62
2023-01-23T11:24:05.779Z,1013.52
2023-01-23T11:25:05.817Z,1013.53
2023-01-23T11:26:05.753Z,1013.52
2023-01-23T11:27:05.752Z,1013.45
2023-01-23T11:28:05.748Z,1013.42
2023-01-23T11:29:05.750Z,1013.45
2023-01-23T11:30:05.727Z,1013.40
2023-01-23T11:31:14.033Z,1013.47
2023-01-23T11:32:07.813Z,1013.38
2023-01-23T11:33:05.709Z,1013.46
2023-01-23T11:34:05.697Z,1013.52
2023-01-23T11:35:07.333Z,1013.46
2023-01-23T11:36:05.706Z,1013.48
2023-01-23T11:37:05.669Z,1013.46
2023-01-23T11:38:05.659Z,1013.40
2023-01-23T11:39:06.732Z,1013.41
2023-01-23T11:40:05.657Z,1013.40
2023-01-23T11:41:05.675Z,1013.38
2023-01-23T11:42:05.641Z,1013.43
2023-01-23T11:43:05.636Z,1013.47
2023-01-23T11:44:07.354Z,1013.30
2023-01-23T11:45:05.614Z,1013.36
2023-01-23T11:46:05.680Z,1013.38
2023-01-23T11:47:05.593Z,1013.26
2023-01-23T11:48:05.588Z,1013.34
2023-01-23T11:49:05.579Z,1013.31
2023-01-23T11:50:05.582Z,1013.23
2023-01-23T11:51:05.650Z,1013.25
2023-01-23T11:52:05.552Z,1013.29
2023-01-23T11:53:05.577Z,1013.28
2023-01-23T11:54:05.572Z,1013.26
2023-01-23T11:55:05.611Z,1013.31
2023-01-23T11:56:05.535Z,1013.22
2023-01-23T11:57:05.549Z,1013.28
2023-01-23T11:58:05.510Z,1013.21
2023-01-23T11:59:05.532Z,1013.21
2023-01-23T12:00:05.509Z,1013.23
2023-01-23T12:01:05.502Z,1013.25
2023-01-23T12:02:05.504Z,1013.24
2023-01-23T12:03:05.556Z,1013.30
2023-01-23T12:04:05.577Z,1013.25
2023-01-23T12:05:05.462Z,1013.30